Terminal Aerodrome Forecast
Issued by NWS Melbourne, FL

Current Version | Previous Version | Text Only | Print | Product List | Glossary On
Versions: 1 2 3 4 5 6 7 8 9 10 11 12 13 14 15 16 17 18
933
FTUS42 KMLB 281121
TAFVRB
TAF
KVRB 281121Z 2812/2912 33003KT P6SM FEW020 SCT050 SCT250
      TEMPO 2812/2813 5SM BR SCT015
     FM281600 07009KT P6SM VCTS SCT020CB SCT250
      TEMPO 2818/2821 3SM TSRA BKN025CB
     FM282200 08009KT P6SM SCT035 BKN250
     FM290300 07003KT P6SM FEW025 SCT120=

USA.gov is the U.S. government's official web portal to all federal, state and local government web resources and services.